Time;durP1;ratioP1;P1;durP2;ratioP2;P2;SDS_P1;SDS_P2;PMS_P1;PMS_P2;Temp;Humidity;BMP_temperature;BMP_pressure;BME280_temperature;BME280_humidity;BME280_pressure;Samples;Min_cycle;Max_cycle;Signal;HPM_P1;HPM_P2
2023/06/06 00:00:57;;;;;;;14.45;11.45;;;;;;;;;;6278071;22;20438;-80
2023/06/06 00:03:25;;;;;;;14.77;11.55;;;;;;;;;;6306330;22;20014;-80
2023/06/06 00:05:51;;;;;;;13.80;12.40;;;;;;;;;;6279162;22;20026;-80
2023/06/06 00:08:20;;;;;;;15.00;12.88;;;;;;;;;;6305972;22;20016;-80
2023/06/06 00:10:46;;;;;;;13.60;12.27;;;;;;;;;;6252938;22;20011;-80
2023/06/06 00:13:13;;;;;;;12.48;10.98;;;;;;;;;;6278406;22;20714;-80
2023/06/06 00:15:40;;;;;;;12.90;10.90;;;;;;;;;;6277644;22;20015;-80
2023/06/06 00:18:06;;;;;;;16.98;12.40;;;;;;;;;;6306242;22;20283;-80
2023/06/06 00:20:35;;;;;;;16.45;11.73;;;;;;;;;;6252919;22;20499;-80
2023/06/06 00:23:01;;;;;;;15.98;14.18;;;;;;;;;;6306225;22;20038;-80
2023/06/06 00:25:27;;;;;;;16.50;14.90;;;;;;;;;;6278324;22;20015;-80
2023/06/06 00:27:53;;;;;;;13.38;11.85;;;;;;;;;;6278321;22;20114;-80
2023/06/06 00:30:20;;;;;;;15.35;13.75;;;;;;;;;;6277786;22;20015;-80
2023/06/06 00:32:46;;;;;;;13.43;10.52;;;;;;;;;;6305650;22;20445;-80
2023/06/06 00:35:12;;;;;;;14.68;12.25;;;;;;;;;;6305863;22;20110;-80
2023/06/06 00:37:38;;;;;;;18.38;14.13;;;;;;;;;;6278418;22;20454;-80
2023/06/06 00:40:07;;;;;;;15.05;12.82;;;;;;;;;;6278275;22;20003;-80
2023/06/06 00:42:33;;;;;;;17.70;15.90;;;;;;;;;;6278328;22;20015;-80
2023/06/06 00:44:59;;;;;;;13.13;10.80;;;;;;;;;;6305706;22;20018;-80
2023/06/06 00:47:26;;;;;;;15.18;12.00;;;;;;;;;;6278329;22;20015;-80
2023/06/06 00:49:52;;;;;;;13.02;11.45;;;;;;;;;;6278062;22;20025;-80
2023/06/06 00:52:20;;;;;;;15.07;13.18;;;;;;;;;;6278218;22;20019;-80
2023/06/06 00:54:47;;;;;;;14.50;12.48;;;;;;;;;;6252384;22;20068;-80
2023/06/06 00:57:16;;;;;;;17.40;15.45;;;;;;;;;;6277928;22;20011;-80
2023/06/06 00:59:42;;;;;;;16.85;13.43;;;;;;;;;;6277981;22;20038;-80
2023/06/06 01:02:10;;;;;;;16.15;14.60;;;;;;;;;;6278485;22;20119;-80
2023/06/06 01:04:39;;;;;;;17.00;13.65;;;;;;;;;;6277837;22;20095;-80
2023/06/06 01:07:07;;;;;;;14.73;12.55;;;;;;;;;;6277850;22;20015;-80
2023/06/06 01:09:33;;;;;;;18.48;16.38;;;;;;;;;;6278444;22;20007;-80
2023/06/06 01:12:09;;;;;;;15.98;14.23;;;;;;;;;;6305163;22;20011;-80
2023/06/06 01:14:51;;;;;;;16.13;12.82;;;;;;;;;;6252245;22;20446;-79
2023/06/06 01:17:18;;;;;;;17.45;15.77;;;;;;;;;;6305494;22;20457;-79
2023/06/06 01:19:48;;;;;;;18.52;16.55;;;;;;;;;;6305652;22;20007;-80
2023/06/06 01:22:14;;;;;;;15.82;12.10;;;;;;;;;;6306006;22;20082;-80
2023/06/06 01:24:44;;;;;;;16.33;14.73;;;;;;;;;;6278048;22;20054;-79
2023/06/06 01:27:10;;;;;;;18.75;16.92;;;;;;;;;;6304936;22;20011;-80
2023/06/06 01:29:36;;;;;;;17.52;14.98;;;;;;;;;;6277992;22;20085;-80
2023/06/06 01:32:04;;;;;;;16.90;15.27;;;;;;;;;;6305102;22;20124;-80
2023/06/06 01:34:34;;;;;;;17.80;15.93;;;;;;;;;;6305793;22;20044;-79
2023/06/06 01:37:03;;;;;;;21.40;19.15;;;;;;;;;;6305610;22;20061;-80
2023/06/06 01:39:29;;;;;;;21.10;16.85;;;;;;;;;;6252273;22;20019;-80
2023/06/06 01:41:56;;;;;;;20.10;17.67;;;;;;;;;;6304686;22;20082;-79
2023/06/06 01:44:22;;;;;;;21.38;18.42;;;;;;;;;;6277618;22;20007;-80
2023/06/06 01:46:48;;;;;;;18.23;16.42;;;;;;;;;;6277747;22;20099;-80
2023/06/06 01:49:16;;;;;;;20.98;16.92;;;;;;;;;;6305470;22;20012;-80
2023/06/06 01:51:42;;;;;;;19.35;16.27;;;;;;;;;;6305126;22;20019;-80
2023/06/06 01:54:08;;;;;;;19.15;16.52;;;;;;;;;;6251915;22;20342;-80
2023/06/06 01:56:34;;;;;;;20.52;18.42;;;;;;;;;;6304820;22;20027;-80
2023/06/06 01:59:01;;;;;;;21.67;19.52;;;;;;;;;;6277673;22;20023;-80
2023/06/06 02:01:28;;;;;;;22.30;20.02;;;;;;;;;;6305403;22;20018;-80
2023/06/06 02:03:55;;;;;;;21.27;18.33;;;;;;;;;;6277728;22;20011;-80
2023/06/06 02:06:21;;;;;;;20.45;17.13;;;;;;;;;;6305141;22;20011;-79
2023/06/06 02:08:50;;;;;;;20.50;16.83;;;;;;;;;;6305423;22;20061;-79
2023/06/06 02:11:16;;;;;;;20.27;18.17;;;;;;;;;;6304437;22;20034;-79
2023/06/06 02:13:42;;;;;;;16.27;14.68;;;;;;;;;;6277474;22;20450;-80
2023/06/06 02:16:08;;;;;;;21.40;18.27;;;;;;;;;;6277370;22;20018;-78
2023/06/06 02:18:33;;;;;;;19.95;16.63;;;;;;;;;;6279576;22;20023;-79
2023/06/06 02:21:00;;;;;;;20.45;18.17;;;;;;;;;;6307608;22;20011;-79
2023/06/06 02:23:25;;;;;;;27.55;19.20;;;;;;;;;;6279679;22;20007;-79
2023/06/06 02:25:53;;;;;;;20.67;17.45;;;;;;;;;;6306844;22;20015;-79
2023/06/06 02:28:20;;;;;;;23.95;20.35;;;;;;;;;;6279595;22;20060;-79
2023/06/06 02:30:47;;;;;;;19.17;16.42;;;;;;;;;;6307204;22;20016;-80
2023/06/06 02:33:13;;;;;;;19.00;17.02;;;;;;;;;;6279599;22;20046;-79
2023/06/06 02:35:40;;;;;;;20.90;17.00;;;;;;;;;;6307127;22;20011;-79
2023/06/06 02:38:06;;;;;;;18.80;16.08;;;;;;;;;;6279592;22;20022;-80
2023/06/06 02:40:32;;;;;;;21.95;18.00;;;;;;;;;;6306764;22;20015;-79
2023/06/06 02:42:59;;;;;;;20.42;18.33;;;;;;;;;;6307290;22;20353;-78
2023/06/06 02:45:25;;;;;;;23.13;18.08;;;;;;;;;;6279435;22;20015;-79
2023/06/06 02:47:51;;;;;;;23.02;18.35;;;;;;;;;;6279362;22;20019;-79
2023/06/06 02:50:20;;;;;;;20.35;18.17;;;;;;;;;;6279436;22;20022;-79
2023/06/06 02:52:46;;;;;;;25.67;18.95;;;;;;;;;;6307225;22;20015;-79
2023/06/06 02:55:12;;;;;;;26.02;17.63;;;;;;;;;;6306098;22;20055;-79
2023/06/06 02:57:38;;;;;;;23.95;19.73;;;;;;;;;;6307094;22;20014;-79
2023/06/06 03:00:07;;;;;;;25.50;19.38;;;;;;;;;;6279378;22;20042;-79
2023/06/06 03:02:33;;;;;;;25.27;17.70;;;;;;;;;;6306998;22;20556;-79
2023/06/06 03:05:00;;;;;;;22.70;18.17;;;;;;;;;;6279196;22;20015;-79
2023/06/06 03:07:26;;;;;;;24.08;18.33;;;;;;;;;;6279223;22;20090;-79
2023/06/06 03:09:52;;;;;;;21.20;19.02;;;;;;;;;;6278752;22;20042;-79
2023/06/06 03:12:18;;;;;;;24.63;18.13;;;;;;;;;;6279324;22;20498;-79
2023/06/06 03:14:44;;;;;;;28.75;19.17;;;;;;;;;;6306454;22;20362;-78
2023/06/06 03:17:10;;;;;;;22.83;19.17;;;;;;;;;;6306992;22;20022;-79
2023/06/06 03:19:36;;;;;;;23.60;17.63;;;;;;;;;;6253576;22;20007;-78
2023/06/06 03:22:02;;;;;;;22.63;18.25;;;;;;;;;;6279248;22;20342;-79
2023/06/06 03:24:29;;;;;;;21.85;17.73;;;;;;;;;;6253767;22;20027;-79
2023/06/06 03:26:56;;;;;;;26.73;17.38;;;;;;;;;;6279295;22;20011;-79
2023/06/06 03:29:22;;;;;;;21.38;17.88;;;;;;;;;;6306078;22;20320;-78
2023/06/06 03:31:51;;;;;;;19.75;17.08;;;;;;;;;;6278945;22;20019;-78
2023/06/06 03:34:17;;;;;;;22.10;17.30;;;;;;;;;;6253264;22;20090;-79
2023/06/06 03:36:43;;;;;;;20.42;17.05;;;;;;;;;;6253044;22;20022;-78
2023/06/06 03:39:09;;;;;;;22.67;16.45;;;;;;;;;;6279504;22;20039;-78
2023/06/06 03:41:35;;;;;;;24.65;18.15;;;;;;;;;;6278953;22;20015;-79
2023/06/06 03:44:01;;;;;;;24.73;17.60;;;;;;;;;;6278807;22;20069;-79
2023/06/06 03:46:27;;;;;;;25.13;18.23;;;;;;;;;;6253399;22;20019;-79
2023/06/06 03:48:53;;;;;;;23.52;18.15;;;;;;;;;;6306620;22;20042;-79
2023/06/06 03:51:19;;;;;;;25.45;16.83;;;;;;;;;;6305848;22;20022;-80
2023/06/06 03:53:45;;;;;;;22.30;18.20;;;;;;;;;;6306377;22;20011;-78
2023/06/06 03:56:12;;;;;;;26.33;17.70;;;;;;;;;;6278755;22;20092;-79
2023/06/06 03:58:38;;;;;;;19.38;17.48;;;;;;;;;;6278745;22;20011;-80
2023/06/06 04:01:04;;;;;;;24.50;17.02;;;;;;;;;;6279255;22;20057;-80
2023/06/06 04:03:36;;;;;;;20.00;15.98;;;;;;;;;;6306345;22;20011;-80
2023/06/06 04:06:04;;;;;;;23.00;16.83;;;;;;;;;;6278308;22;20027;-79
2023/06/06 04:08:31;;;;;;;22.17;16.98;;;;;;;;;;6279244;22;20012;-79
2023/06/06 04:10:57;;;;;;;24.08;18.70;;;;;;;;;;6278915;22;20076;-79
2023/06/06 04:13:23;;;;;;;21.25;16.50;;;;;;;;;;6306406;22;20007;-79
2023/06/06 04:15:49;;;;;;;20.17;16.45;;;;;;;;;;6278279;22;20098;-79
2023/06/06 04:18:15;;;;;;;23.15;16.17;;;;;;;;;;6278457;22;20461;-79
2023/06/06 04:20:44;;;;;;;21.52;15.57;;;;;;;;;;6305568;22;20015;-79
2023/06/06 04:23:10;;;;;;;25.65;15.57;;;;;;;;;;6278613;22;20311;-79
2023/06/06 04:25:36;;;;;;;23.10;15.60;;;;;;;;;;6278548;22;20074;-80
2023/06/06 04:28:02;;;;;;;17.27;15.25;;;;;;;;;;6278650;22;20433;-79
2023/06/06 04:30:29;;;;;;;21.25;14.63;;;;;;;;;;6278397;22;20050;-79
2023/06/06 04:32:56;;;;;;;22.88;15.15;;;;;;;;;;6305780;22;20011;-79
2023/06/06 04:35:22;;;;;;;22.55;14.50;;;;;;;;;;6277577;22;20064;-79
2023/06/06 04:37:50;;;;;;;20.77;11.68;;;;;;;;;;6305744;22;20012;-79
2023/06/06 04:40:16;;;;;;;23.65;13.55;;;;;;;;;;6305839;22;20011;-79
2023/06/06 04:42:42;;;;;;;22.63;11.73;;;;;;;;;;6305982;22;20022;-79
2023/06/06 04:45:09;;;;;;;18.67;12.45;;;;;;;;;;6278073;22;20019;-79
2023/06/06 04:47:36;;;;;;;16.13;11.07;;;;;;;;;;6278117;22;20094;-79
2023/06/06 04:50:04;;;;;;;23.55;11.77;;;;;;;;;;6278077;22;20038;-79
2023/06/06 04:52:30;;;;;;;21.48;11.98;;;;;;;;;;6278682;22;20076;-80
2023/06/06 04:54:56;;;;;;;20.45;11.98;;;;;;;;;;6277927;22;20136;-79
2023/06/06 04:57:23;;;;;;;22.08;11.43;;;;;;;;;;6306022;22;20011;-79
2023/06/06 04:59:52;;;;;;;17.98;11.48;;;;;;;;;;6278275;22;20015;-80
2023/06/06 05:02:20;;;;;;;17.52;11.88;;;;;;;;;;6278268;22;20015;-83
2023/06/06 05:04:47;;;;;;;17.83;10.95;;;;;;;;;;6278592;22;20334;-81
2023/06/06 05:07:13;;;;;;;18.60;11.75;;;;;;;;;;6278597;22;20049;-80
2023/06/06 05:09:39;;;;;;;20.90;10.98;;;;;;;;;;6278421;22;20030;-81
2023/06/06 05:12:05;;;;;;;20.80;12.82;;;;;;;;;;6278640;22;20050;-81
2023/06/06 05:14:31;;;;;;;16.92;13.25;;;;;;;;;;6278738;22;20137;-81
2023/06/06 05:16:58;;;;;;;23.35;19.13;;;;;;;;;;6305856;22;20015;-81
2023/06/06 05:19:24;;;;;;;20.38;15.05;;;;;;;;;;6305470;22;20064;-81
2023/06/06 05:21:51;;;;;;;16.63;7.28;;;;;;;;;;6279114;22;20049;-81
2023/06/06 05:24:17;;;;;;;14.23;7.18;;;;;;;;;;6306178;22;20014;-80
2023/06/06 05:26:43;;;;;;;15.88;7.88;;;;;;;;;;6278868;22;20018;-81
2023/06/06 05:29:09;;;;;;;13.70;8.25;;;;;;;;;;6277978;22;20007;-82
2023/06/06 05:31:35;;;;;;;16.65;9.07;;;;;;;;;;6277594;22;20011;-82
2023/06/06 05:34:02;;;;;;;17.25;9.15;;;;;;;;;;6304710;22;20019;-82
2023/06/06 05:36:28;;;;;;;19.38;7.95;;;;;;;;;;6277372;22;20314;-81
2023/06/06 05:38:54;;;;;;;13.73;7.20;;;;;;;;;;6304914;22;20421;-81
2023/06/06 05:41:20;;;;;;;11.20;6.45;;;;;;;;;;6305217;22;20043;-81
2023/06/06 05:43:46;;;;;;;15.65;7.43;;;;;;;;;;6305178;22;20014;-82
2023/06/06 05:46:13;;;;;;;16.85;9.55;;;;;;;;;;6277374;22;20345;-82
2023/06/06 05:48:39;;;;;;;14.45;12.57;;;;;;;;;;6276910;22;20086;-82
2023/06/06 05:51:05;;;;;;;26.85;24.15;;;;;;;;;;6277500;22;20116;-82
2023/06/06 05:53:31;;;;;;;37.65;34.55;;;;;;;;;;6277194;22;20061;-82
2023/06/06 05:55:58;;;;;;;40.35;37.10;;;;;;;;;;6304442;22;20019;-82
2023/06/06 05:58:23;;;;;;;40.85;37.83;;;;;;;;;;6277398;22;20011;-81
2023/06/06 06:00:50;;;;;;;28.42;26.27;;;;;;;;;;6305033;22;20007;-82
2023/06/06 06:03:16;;;;;;;29.80;27.25;;;;;;;;;;6276659;22;20013;-81
2023/06/06 06:05:42;;;;;;;16.60;14.90;;;;;;;;;;6277294;22;20385;-81
2023/06/06 06:08:08;;;;;;;22.70;20.50;;;;;;;;;;6277215;22;20022;-81
2023/06/06 06:10:38;;;;;;;17.95;14.65;;;;;;;;;;6304882;22;20302;-82
2023/06/06 06:13:05;;;;;;;20.70;16.13;;;;;;;;;;6304856;22;20011;-82
2023/06/06 06:15:31;;;;;;;17.08;15.38;;;;;;;;;;6277023;22;20023;-81
2023/06/06 06:17:57;;;;;;;17.25;10.68;;;;;;;;;;6251045;22;20064;-81
2023/06/06 06:20:23;;;;;;;12.50;9.90;;;;;;;;;;6277376;22;20018;-81
2023/06/06 06:22:49;;;;;;;15.82;9.00;;;;;;;;;;6277638;22;20018;-81
2023/06/06 06:25:16;;;;;;;18.58;16.60;;;;;;;;;;6277604;22;20015;-81
2023/06/06 06:27:45;;;;;;;21.83;15.85;;;;;;;;;;6251844;22;20023;-82
2023/06/06 06:30:12;;;;;;;35.95;33.22;;;;;;;;;;6251699;22;20323;-81
2023/06/06 06:32:39;;;;;;;46.58;43.10;;;;;;;;;;6276608;22;20022;-82
2023/06/06 06:35:05;;;;;;;34.92;32.17;;;;;;;;;;6277143;22;20100;-82
2023/06/06 06:37:33;;;;;;;38.15;35.25;;;;;;;;;;6304900;22;20011;-82
2023/06/06 06:40:00;;;;;;;35.38;32.67;;;;;;;;;;6251500;22;20011;-81
2023/06/06 06:42:26;;;;;;;29.63;27.13;;;;;;;;;;6251436;22;20413;-82
2023/06/06 06:44:53;;;;;;;35.55;32.95;;;;;;;;;;6251600;22;20011;-82
2023/06/06 06:47:19;;;;;;;59.60;55.58;;;;;;;;;;6250860;22;20018;-82
2023/06/06 06:49:45;;;;;;;62.17;58.25;;;;;;;;;;6304863;22;20075;-82
2023/06/06 06:52:12;;;;;;;62.88;58.83;;;;;;;;;;6277345;22;20461;-82
2023/06/06 06:54:54;;;;;;;108.63;102.18;;;;;;;;;;6251168;22;20015;-82
2023/06/06 06:57:26;;;;;;;175.83;165.57;;;;;;;;;;6277581;22;20027;-82
2023/06/06 06:59:52;;;;;;;464.92;433.13;;;;;;;;;;6251041;22;20299;-82
2023/06/06 07:02:19;;;;;;;655.08;605.88;;;;;;;;;;6277207;22;20334;-82
2023/06/06 07:04:47;;;;;;;760.03;700.65;;;;;;;;;;6278849;22;20315;-82
2023/06/06 07:07:17;;;;;;;958.65;868.75;;;;;;;;;;6253444;22;20011;-82
2023/06/06 07:09:43;;;;;;;1088.03;969.42;;;;;;;;;;6278948;22;20037;-82
2023/06/06 07:12:10;;;;;;;1171.85;998.05;;;;;;;;;;6306307;22;20018;-82
2023/06/06 07:14:36;;;;;;;1367.22;999.90;;;;;;;;;;6278281;22;20465;-82
2023/06/06 07:17:03;;;;;;;1417.75;999.90;;;;;;;;;;6278893;22;20011;-82
2023/06/06 07:19:29;;;;;;;1629.18;999.90;;;;;;;;;;6278766;22;20016;-82
2023/06/06 07:21:56;;;;;;;1526.90;999.90;;;;;;;;;;6253275;22;20061;-82
2023/06/06 07:24:23;;;;;;;1481.07;999.90;;;;;;;;;;6278733;22;20011;-82
2023/06/06 07:26:51;;;;;;;1502.47;999.90;;;;;;;;;;6278860;22;20091;-82
2023/06/06 07:29:17;;;;;;;1349.18;999.90;;;;;;;;;;6278547;22;20015;-82
2023/06/06 07:31:44;;;;;;;1591.68;999.90;;;;;;;;;;6278979;22;20074;-82
2023/06/06 07:34:10;;;;;;;1533.78;999.90;;;;;;;;;;6253076;22;20011;-82
2023/06/06 07:36:36;;;;;;;1586.95;999.90;;;;;;;;;;6278959;22;20076;-82
2023/06/06 07:39:02;;;;;;;1486.35;999.90;;;;;;;;;;6278826;22;20011;-82
2023/06/06 07:41:33;;;;;;;1592.53;999.90;;;;;;;;;;6278623;22;20438;-82
2023/06/06 07:43:59;;;;;;;1696.80;999.90;;;;;;;;;;6252652;22;20015;-82
2023/06/06 07:46:25;;;;;;;1533.60;999.90;;;;;;;;;;6278974;22;20011;-82
2023/06/06 07:48:51;;;;;;;1558.45;999.90;;;;;;;;;;6278553;22;20058;-82
2023/06/06 07:51:18;;;;;;;1598.78;999.90;;;;;;;;;;6252719;22;20086;-82
2023/06/06 07:53:44;;;;;;;1469.93;999.90;;;;;;;;;;6253099;22;20446;-81
2023/06/06 07:56:13;;;;;;;1335.45;999.90;;;;;;;;;;6278692;22;20069;-82
2023/06/06 07:58:41;;;;;;;1522.53;999.90;;;;;;;;;;6278411;22;20046;-82
2023/06/06 08:01:08;;;;;;;1492.60;999.90;;;;;;;;;;6278977;22;20023;-82
2023/06/06 08:03:35;;;;;;;1532.75;999.90;;;;;;;;;;6278366;22;20341;-82
2023/06/06 08:06:01;;;;;;;1600.38;999.90;;;;;;;;;;6252577;22;20434;-82
2023/06/06 08:08:27;;;;;;;1499.68;999.90;;;;;;;;;;6278683;22;20016;-82
2023/06/06 08:10:53;;;;;;;1357.85;999.90;;;;;;;;;;6252858;22;20030;-81
2023/06/06 08:13:22;;;;;;;1455.15;999.90;;;;;;;;;;6277717;22;20011;-82
2023/06/06 08:15:48;;;;;;;1443.05;999.90;;;;;;;;;;6252491;22;20046;-82
2023/06/06 08:18:14;;;;;;;1551.38;999.90;;;;;;;;;;6306027;22;20007;-81
2023/06/06 08:20:40;;;;;;;1588.57;999.90;;;;;;;;;;6278670;22;20056;-81
2023/06/06 08:23:07;;;;;;;1482.90;999.90;;;;;;;;;;6305992;22;20034;-81
2023/06/06 08:25:33;;;;;;;1617.03;999.90;;;;;;;;;;6278152;22;20023;-82
2023/06/06 08:27:59;;;;;;;1432.25;999.90;;;;;;;;;;6277510;22;20015;-82
2023/06/06 08:30:25;;;;;;;1617.60;999.90;;;;;;;;;;6305903;22;20091;-82
2023/06/06 08:32:52;;;;;;;1485.30;999.90;;;;;;;;;;6305718;22;20015;-82
2023/06/06 08:35:22;;;;;;;1469.97;999.90;;;;;;;;;;6278222;22;20021;-82
2023/06/06 08:37:48;;;;;;;1565.75;999.90;;;;;;;;;;6252343;22;20013;-82
2023/06/06 08:40:14;;;;;;;1489.50;999.90;;;;;;;;;;6277911;22;20012;-82
2023/06/06 08:42:45;;;;;;;1564.78;999.90;;;;;;;;;;6277339;22;20011;-82
2023/06/06 08:45:11;;;;;;;1494.45;999.90;;;;;;;;;;6278173;22;20068;-82
2023/06/06 08:47:38;;;;;;;1329.88;999.90;;;;;;;;;;6277940;22;20523;-82
2023/06/06 08:50:04;;;;;;;1349.40;999.90;;;;;;;;;;6305706;22;20022;-82
2023/06/06 08:52:36;;;;;;;1369.20;999.90;;;;;;;;;;6305744;22;20310;-82
2023/06/06 08:55:03;;;;;;;1443.20;999.90;;;;;;;;;;6251786;22;20022;-82
2023/06/06 08:57:29;;;;;;;1446.28;999.90;;;;;;;;;;6305163;22;20144;-81
2023/06/06 08:59:55;;;;;;;1467.50;999.90;;;;;;;;;;6277762;22;20011;-82
2023/06/06 09:02:22;;;;;;;1534.90;999.90;;;;;;;;;;6277939;22;20034;-82
2023/06/06 09:04:50;;;;;;;1398.30;999.90;;;;;;;;;;6277858;22;20107;-82
2023/06/06 09:07:16;;;;;;;1407.65;999.90;;;;;;;;;;6252438;22;20069;-82
2023/06/06 09:09:43;;;;;;;1192.25;990.42;;;;;;;;;;6305479;22;20069;-82
2023/06/06 09:12:09;;;;;;;1325.20;999.90;;;;;;;;;;6277745;22;20023;-82
2023/06/06 09:14:36;;;;;;;1302.88;999.90;;;;;;;;;;6252227;22;20022;-81
2023/06/06 09:17:02;;;;;;;1285.75;999.90;;;;;;;;;;6252274;22;20038;-82
2023/06/06 09:19:29;;;;;;;1389.03;999.90;;;;;;;;;;6252214;22;20008;-81
2023/06/06 09:21:58;;;;;;;1088.15;964.40;;;;;;;;;;6277826;22;20007;-83
2023/06/06 09:24:24;;;;;;;1076.90;961.13;;;;;;;;;;6277701;22;20082;-82
2023/06/06 09:26:50;;;;;;;980.00;885.65;;;;;;;;;;6304466;22;20053;-82
2023/06/06 09:29:16;;;;;;;935.35;849.97;;;;;;;;;;6277930;22;20019;-83
2023/06/06 09:31:42;;;;;;;830.88;760.78;;;;;;;;;;6305429;22;20334;-82
2023/06/06 09:34:09;;;;;;;685.65;632.40;;;;;;;;;;6252267;22;20018;-82
2023/06/06 09:36:37;;;;;;;668.90;617.92;;;;;;;;;;6251928;22;20011;-81
2023/06/06 09:39:05;;;;;;;594.50;550.70;;;;;;;;;;6278009;22;20476;-82
2023/06/06 09:41:31;;;;;;;641.28;592.45;;;;;;;;;;6278022;22;20011;-82
2023/06/06 09:43:57;;;;;;;463.92;431.35;;;;;;;;;;6277916;22;20080;-82
2023/06/06 09:46:24;;;;;;;502.00;466.65;;;;;;;;;;6252179;22;20453;-82
2023/06/06 09:48:54;;;;;;;520.60;484.52;;;;;;;;;;6251970;22;20069;-82
2023/06/06 09:51:20;;;;;;;408.38;380.90;;;;;;;;;;6251950;22;20378;-81
2023/06/06 09:53:50;;;;;;;372.55;348.05;;;;;;;;;;6276689;22;20457;-81
2023/06/06 09:56:21;;;;;;;289.10;271.30;;;;;;;;;;6304979;22;20026;-82
2023/06/06 09:58:51;;;;;;;282.75;264.55;;;;;;;;;;6277395;22;20017;-82
2023/06/06 10:01:17;;;;;;;201.10;188.85;;;;;;;;;;6251813;22;20338;-81
2023/06/06 10:03:43;;;;;;;207.73;194.77;;;;;;;;;;6277457;22;20012;-81
2023/06/06 10:06:09;;;;;;;173.15;162.48;;;;;;;;;;6277259;22;20034;-81
2023/06/06 10:08:37;;;;;;;140.95;132.32;;;;;;;;;;6251025;22;20095;-81
2023/06/06 10:11:03;;;;;;;162.73;152.90;;;;;;;;;;6277197;22;20007;-82
2023/06/06 10:13:30;;;;;;;208.98;195.73;;;;;;;;;;6305041;22;20046;-81
2023/06/06 10:15:57;;;;;;;172.15;161.77;;;;;;;;;;6277138;22;20015;-81
2023/06/06 10:18:24;;;;;;;145.02;136.27;;;;;;;;;;6251520;22;20007;-81
2023/06/06 10:20:53;;;;;;;143.23;134.70;;;;;;;;;;6277202;22;20018;-81
2023/06/06 10:23:19;;;;;;;100.40;94.50;;;;;;;;;;6276711;22;20337;-81
2023/06/06 10:25:46;;;;;;;94.95;89.03;;;;;;;;;;6277229;22;20505;-81
2023/06/06 10:28:22;;;;;;;83.53;78.63;;;;;;;;;;6251541;22;20046;-81
2023/06/06 10:31:02;;;;;;;60.30;56.42;;;;;;;;;;6277315;22;20046;-82
2023/06/06 10:33:33;;;;;;;73.28;68.45;;;;;;;;;;6304549;22;20531;-81
2023/06/06 10:36:04;;;;;;;55.63;51.88;;;;;;;;;;6277458;22;20071;-81
2023/06/06 10:38:30;;;;;;;60.80;56.67;;;;;;;;;;6252546;22;20397;-81
2023/06/06 10:40:58;;;;;;;68.95;64.03;;;;;;;;;;6307107;22;20060;-82
2023/06/06 10:43:33;;;;;;;57.88;53.85;;;;;;;;;;6279155;22;20405;-81
2023/06/06 10:45:59;;;;;;;61.67;57.40;;;;;;;;;;6279168;22;20033;-81
2023/06/06 10:48:38;;;;;;;43.33;39.97;;;;;;;;;;6279147;22;20043;-81
2023/06/06 10:51:04;;;;;;;49.03;45.80;;;;;;;;;;6279333;22;20066;-81
2023/06/06 10:53:30;;;;;;;55.15;51.55;;;;;;;;;;6278389;22;20015;-81
2023/06/06 10:55:56;;;;;;;50.45;46.65;;;;;;;;;;6273529;22;20081;-81
2023/06/06 10:58:32;;;;;;;54.30;50.22;;;;;;;;;;6275895;22;20083;-82
2023/06/06 11:00:59;;;;;;;44.65;41.35;;;;;;;;;;6274289;22;20046;-81
2023/06/06 11:03:51;;;;;;;39.53;36.17;;;;;;;;;;6274348;22;20018;-82
2023/06/06 11:06:20;;;;;;;47.92;44.10;;;;;;;;;;6269086;22;20486;-81
2023/06/06 11:08:53;;;;;;;49.35;45.45;;;;;;;;;;6274276;22;20011;-82
2023/06/06 11:11:19;;;;;;;;;;;;;;;;;;6274454;22;20082;-82
2023/06/06 11:13:49;;;;;;;49.92;46.20;;;;;;;;;;6274111;22;19914;-81
2023/06/06 11:16:15;;;;;;;49.97;45.95;;;;;;;;;;6273725;22;20023;-81
2023/06/06 11:18:42;;;;;;;42.90;39.42;;;;;;;;;;6248174;22;20011;-81
2023/06/06 11:21:08;;;;;;;53.58;49.72;;;;;;;;;;6273327;22;20334;-81
2023/06/06 11:23:39;;;;;;;48.85;44.90;;;;;;;;;;6275653;22;20163;-82
2023/06/06 11:26:08;;;;;;;52.05;48.38;;;;;;;;;;6274009;22;20018;-82
2023/06/06 11:28:34;;;;;;;39.78;36.88;;;;;;;;;;6273623;22;20015;-81
2023/06/06 11:31:02;;;;;;;43.67;40.40;;;;;;;;;;6275588;22;20007;-81
2023/06/06 11:33:29;;;;;;;46.50;42.92;;;;;;;;;;6273957;22;20023;-81
2023/06/06 11:35:55;;;;;;;48.72;45.28;;;;;;;;;;6246282;22;20011;-81
2023/06/06 11:38:22;;;;;;;40.47;37.38;;;;;;;;;;6275426;22;20022;-81
2023/06/06 11:40:48;;;;;;;61.33;57.25;;;;;;;;;;6273528;22;20444;-81
2023/06/06 11:43:14;;;;;;;42.88;39.60;;;;;;;;;;6274095;22;20301;-82
2023/06/06 11:45:40;;;;;;;37.42;34.63;;;;;;;;;;6273504;22;20039;-81
2023/06/06 11:48:26;;;;;;;40.88;37.92;;;;;;;;;;6273970;22;20784;-82
2023/06/06 11:50:52;;;;;;;57.47;53.70;;;;;;;;;;6274343;22;20086;-81
2023/06/06 11:53:28;;;;;;;53.65;49.75;;;;;;;;;;6273490;22;20065;-81
2023/06/06 11:55:54;;;;;;;49.67;46.58;;;;;;;;;;6247413;22;20016;-82
2023/06/06 11:58:20;;;;;;;34.75;31.55;;;;;;;;;;6247882;22;20018;-81
2023/06/06 12:00:47;;;;;;;47.40;43.45;;;;;;;;;;6273322;22;20023;-81
2023/06/06 12:03:16;;;;;;;59.33;55.33;;;;;;;;;;6273249;22;20087;-82
2023/06/06 12:05:42;;;;;;;39.60;36.42;;;;;;;;;;6273205;22;20023;-81
2023/06/06 12:08:08;;;;;;;53.78;49.95;;;;;;;;;;6275029;22;20075;-81
2023/06/06 12:10:34;;;;;;;47.33;44.03;;;;;;;;;;6273612;22;20087;-82
2023/06/06 12:13:01;;;;;;;41.65;38.53;;;;;;;;;;6247561;22;20016;-81
2023/06/06 12:15:46;;;;;;;45.80;42.58;;;;;;;;;;6247507;22;20016;-82
2023/06/06 12:18:13;;;;;;;44.70;41.40;;;;;;;;;;6273101;22;20019;-82
2023/06/06 12:20:39;;;;;;;51.35;47.78;;;;;;;;;;6246950;22;20019;-81
2023/06/06 12:23:05;;;;;;;39.78;36.83;;;;;;;;;;6247719;22;20410;-82
2023/06/06 12:25:31;;;;;;;43.10;39.75;;;;;;;;;;6247485;22;20051;-81
2023/06/06 12:28:10;;;;;;;44.90;41.42;;;;;;;;;;6273073;22;20090;-81
2023/06/06 12:30:38;;;;;;;42.15;39.03;;;;;;;;;;6274682;22;20016;-82
2023/06/06 12:33:05;;;;;;;46.28;42.53;;;;;;;;;;6272447;22;20016;-80
2023/06/06 12:35:31;;;;;;;38.92;36.17;;;;;;;;;;6272984;22;20019;-81
2023/06/06 12:37:58;;;;;;;59.97;56.00;;;;;;;;;;6273235;22;20039;-81
2023/06/06 12:40:33;;;;;;;45.05;41.63;;;;;;;;;;6272733;22;20012;-82
2023/06/06 12:43:04;;;;;;;45.85;42.78;;;;;;;;;;6272977;22;20397;-81
2023/06/06 12:45:33;;;;;;;43.95;40.92;;;;;;;;;;6272965;22;20016;-81
2023/06/06 12:47:59;;;;;;;46.03;42.38;;;;;;;;;;6247113;22;20361;-81
2023/06/06 12:50:25;;;;;;;49.30;45.70;;;;;;;;;;6273193;22;20016;-81
2023/06/06 12:52:51;;;;;;;46.40;43.05;;;;;;;;;;6247433;22;20022;-81
2023/06/06 12:55:18;;;;;;;35.20;32.20;;;;;;;;;;6272723;22;20016;-82
2023/06/06 12:57:45;;;;;;;45.15;41.75;;;;;;;;;;6272698;22;20012;-81
2023/06/06 13:00:13;;;;;;;37.20;34.28;;;;;;;;;;6272724;22;20034;-81
2023/06/06 13:02:39;;;;;;;39.38;36.47;;;;;;;;;;6246701;22;20008;-81
2023/06/06 13:05:06;;;;;;;43.38;39.92;;;;;;;;;;6247228;22;20018;-82
2023/06/06 13:07:32;;;;;;;51.47;47.67;;;;;;;;;;6272836;22;20020;-82
2023/06/06 13:09:59;;;;;;;51.08;47.28;;;;;;;;;;6274784;22;20012;-82
2023/06/06 13:12:28;;;;;;;51.00;47.45;;;;;;;;;;6247174;22;20008;-82
2023/06/06 13:14:56;;;;;;;65.88;61.20;;;;;;;;;;6272504;22;20015;-81
2023/06/06 13:17:22;;;;;;;50.33;46.55;;;;;;;;;;6274016;22;20018;-81
2023/06/06 13:19:51;;;;;;;44.42;41.13;;;;;;;;;;6247210;22;20008;-81
2023/06/06 13:22:17;;;;;;;42.22;38.90;;;;;;;;;;6272675;22;20050;-82
2023/06/06 13:24:43;;;;;;;60.97;57.00;;;;;;;;;;6247110;22;20011;-82
2023/06/06 13:27:10;;;;;;;54.75;50.85;;;;;;;;;;6272562;22;20086;-81
2023/06/06 13:29:37;;;;;;;61.00;56.65;;;;;;;;;;6246753;22;20019;-82
2023/06/06 13:32:03;;;;;;;51.70;47.50;;;;;;;;;;6273920;22;20018;-82
2023/06/06 13:34:29;;;;;;;53.00;48.88;;;;;;;;;;6246830;22;20023;-82
2023/06/06 13:36:55;;;;;;;41.25;38.15;;;;;;;;;;6272388;22;20016;-82
2023/06/06 13:39:21;;;;;;;40.17;37.10;;;;;;;;;;6246965;22;20033;-82
2023/06/06 13:41:48;;;;;;;52.00;48.42;;;;;;;;;;6272945;22;20008;-81
2023/06/06 13:44:18;;;;;;;43.53;40.03;;;;;;;;;;6272376;22;20047;-82
2023/06/06 13:46:44;;;;;;;53.25;49.38;;;;;;;;;;6272073;22;20439;-82
2023/06/06 13:49:16;;;;;;;64.07;59.63;;;;;;;;;;6274265;22;20018;-81
2023/06/06 13:51:43;;;;;;;64.38;60.13;;;;;;;;;;6274418;22;20082;-82
2023/06/06 13:54:10;;;;;;;59.78;55.40;;;;;;;;;;6274096;22;20018;-81
2023/06/06 13:56:36;;;;;;;58.10;53.90;;;;;;;;;;6251902;22;20104;-81
2023/06/06 13:59:03;;;;;;;65.03;60.83;;;;;;;;;;6305133;22;20061;-81
2023/06/06 14:01:29;;;;;;;71.43;66.20;;;;;;;;;;6276874;22;20094;-82
2023/06/06 14:03:55;;;;;;;65.07;60.75;;;;;;;;;;6251927;22;20030;-82
2023/06/06 14:06:22;;;;;;;47.40;44.20;;;;;;;;;;6251679;22;20015;-81
2023/06/06 14:08:48;;;;;;;39.53;36.22;;;;;;;;;;6305095;22;20050;-82